Time;durP1;ratioP1;P1;durP2;ratioP2;P2;SDS_P1;SDS_P2;PMS_P1;PMS_P2;Temp;Humidity;BMP_temperature;BMP_pressure;BME280_temperature;BME280_humidity;BME280_pressure;Samples;Min_cycle;Max_cycle;Signal;HPM_P1;HPM_P2
2023/08/27 00:00:08;;;;;;;5.03;2.47;;;;;;;17.98;68.67;100603.44;7399361;19;20081;-68
2023/08/27 00:02:36;;;;;;;3.47;2.67;;;;;;;17.96;69.14;100588.53;7399696;19;20010;-68
2023/08/27 00:05:09;;;;;;;3.75;2.55;;;;;;;17.94;69.25;100578.00;7399571;19;20011;-68
2023/08/27 00:07:45;;;;;;;2.92;2.63;;;;;;;17.90;69.47;100574.63;7399237;19;20011;-68
2023/08/27 00:10:14;;;;;;;4.03;2.58;;;;;;;17.90;69.35;100565.84;7399878;19;20010;-68
2023/08/27 00:12:42;;;;;;;4.13;3.38;;;;;;;17.87;69.50;100566.84;7398943;19;20014;-68
2023/08/27 00:15:11;;;;;;;4.47;2.53;;;;;;;17.84;69.69;100569.66;7397224;19;20015;-68
2023/08/27 00:17:40;;;;;;;4.10;3.00;;;;;;;17.81;69.85;100566.34;7398846;19;20015;-68
2023/08/27 00:20:12;;;;;;;5.95;3.10;;;;;;;17.78;70.18;100555.88;7399246;19;20099;-68
2023/08/27 00:22:40;;;;;;;4.28;3.33;;;;;;;17.74;70.36;100541.94;7398320;19;20498;-68
2023/08/27 00:25:09;;;;;;;4.78;3.00;;;;;;;17.68;70.67;100540.47;7398847;19;20010;-68
2023/08/27 00:27:38;;;;;;;4.80;3.67;;;;;;;17.64;70.92;100554.00;7398600;19;20014;-68
2023/08/27 00:30:08;;;;;;;5.05;4.13;;;;;;;17.58;71.37;100558.69;7398676;19;20090;-68
2023/08/27 00:32:36;;;;;;;4.95;3.90;;;;;;;17.53;71.67;100566.03;7398353;19;20010;-68
2023/08/27 00:35:06;;;;;;;5.30;4.22;;;;;;;17.49;72.22;100569.81;7396456;19;20027;-68
2023/08/27 00:37:37;;;;;;;6.28;4.43;;;;;;;17.43;72.74;100549.75;7398474;19;20014;-68
2023/08/27 00:40:06;;;;;;;4.70;3.75;;;;;;;17.39;72.90;100556.19;7398129;19;20023;-68
2023/08/27 00:42:35;;;;;;;6.70;4.50;;;;;;;17.34;73.84;100573.25;7397614;19;20013;-68
2023/08/27 00:45:03;;;;;;;5.18;4.22;;;;;;;17.29;74.17;100576.16;7398236;19;20070;-68
2023/08/27 00:47:33;;;;;;;5.68;3.90;;;;;;;17.26;73.96;100571.00;7397743;19;20478;-68
2023/08/27 00:50:01;;;;;;;4.68;4.28;;;;;;;17.23;74.26;100569.38;7395868;19;20014;-68
2023/08/27 00:52:30;;;;;;;3.97;3.58;;;;;;;17.21;74.31;100567.75;7397783;19;20018;-68
2023/08/27 00:55:03;;;;;;;4.53;3.30;;;;;;;17.16;74.75;100559.19;7396468;19;20023;-68
2023/08/27 00:57:38;;;;;;;5.77;3.27;;;;;;;17.09;74.82;100556.00;7398324;19;20002;-67
2023/08/27 01:00:09;;;;;;;4.28;3.60;;;;;;;17.07;75.17;100555.22;7397689;19;20015;-67
2023/08/27 01:02:38;;;;;;;8.27;3.35;;;;;;;17.03;75.35;100575.72;7397745;19;20017;-67
2023/08/27 01:05:07;;;;;;;4.85;3.10;;;;;;;17.00;75.38;100562.63;7395349;19;20015;-67
2023/08/27 01:07:44;;;;;;;6.25;3.13;;;;;;;16.97;75.60;100554.81;7397225;19;20040;-67
2023/08/27 01:10:24;;;;;;;6.65;3.47;;;;;;;16.93;75.93;100562.09;7397817;19;20027;-67
2023/08/27 01:15:21;;;;;;;4.85;3.42;;;;;;;16.91;76.07;100557.81;7396929;19;20351;-70
2023/08/27 01:17:51;;;;;;;4.65;4.03;;;;;;;16.91;76.11;100560.47;7400101;19;20011;-71
2023/08/27 01:20:20;;;;;;;4.90;3.80;;;;;;;16.90;76.11;100545.47;7399074;19;20027;-71
2023/08/27 01:22:51;;;;;;;4.57;3.92;;;;;;;16.89;76.67;100562.28;7399115;19;20010;-71
2023/08/27 01:25:25;;;;;;;4.38;3.53;;;;;;;16.84;76.97;100562.50;7400746;19;20014;-71
2023/08/27 01:28:00;;;;;;;4.05;3.30;;;;;;;16.86;77.02;100555.34;7401491;19;20007;-70
2023/08/27 01:30:36;;;;;;;3.92;3.53;;;;;;;16.86;77.14;100552.72;7401427;19;20511;-71
2023/08/27 01:33:11;;;;;;;4.70;3.50;;;;;;;16.85;77.19;100542.19;7400511;19;20483;-71
2023/08/27 01:35:41;;;;;;;5.88;3.78;;;;;;;16.82;77.08;100544.97;7399579;19;20015;-71
2023/08/27 01:38:13;;;;;;;4.65;3.80;;;;;;;16.80;77.64;100542.41;7398598;19;20070;-70
2023/08/27 01:40:43;;;;;;;4.57;3.92;;;;;;;16.76;78.07;100523.16;7400485;19;20047;-71
2023/08/27 01:43:12;;;;;;;4.57;3.90;;;;;;;16.72;77.98;100512.81;7400567;19;20073;-71
2023/08/27 01:45:41;;;;;;;6.15;3.78;;;;;;;16.71;78.25;100506.66;7400349;19;20078;-71
2023/08/27 01:48:09;;;;;;;6.38;4.30;;;;;;;16.69;78.67;100521.75;7399229;19;20023;-71
2023/08/27 01:50:38;;;;;;;5.95;4.25;;;;;;;16.67;78.66;100531.59;7401249;19;20015;-71
2023/08/27 01:53:08;;;;;;;4.85;4.00;;;;;;;16.66;78.88;100537.81;7400395;19;20011;-71
2023/08/27 01:55:40;;;;;;;7.65;4.32;;;;;;;16.64;79.02;100529.09;7397855;19;20423;-71
2023/08/27 01:58:08;;;;;;;9.70;4.72;;;;;;;16.57;79.51;100510.00;7400604;19;20010;-70
2023/08/27 02:00:37;;;;;;;6.68;5.63;;;;;;;16.59;79.38;100521.41;7398030;19;20031;-71
2023/08/27 02:03:06;;;;;;;4.78;4.20;;;;;;;16.59;79.72;100509.94;7399335;19;20011;-71
2023/08/27 02:05:35;;;;;;;7.07;4.60;;;;;;;16.57;79.87;100517.97;7399786;19;20003;-71
2023/08/27 02:08:04;;;;;;;6.82;4.30;;;;;;;16.57;80.17;100506.53;7401007;19;20019;-71
2023/08/27 02:10:32;;;;;;;6.53;4.68;;;;;;;16.54;80.22;100499.59;7400439;19;20412;-70
2023/08/27 02:13:04;;;;;;;6.07;4.28;;;;;;;16.55;80.39;100508.38;7400667;19;20018;-70
2023/08/27 02:15:32;;;;;;;5.53;4.40;;;;;;;16.53;80.28;100526.13;7400192;19;20011;-71
2023/08/27 02:18:01;;;;;;;8.30;4.97;;;;;;;16.50;80.30;100521.84;7398966;19;20019;-71
2023/08/27 02:20:29;;;;;;;6.25;5.47;;;;;;;16.48;80.47;100510.47;7399532;19;20014;-71
2023/08/27 02:22:58;;;;;;;5.55;5.05;;;;;;;16.44;80.40;100520.38;7398962;19;20018;-70
2023/08/27 02:25:27;;;;;;;7.38;5.03;;;;;;;16.43;80.53;100513.34;7399630;19;20013;-71
2023/08/27 02:27:56;;;;;;;7.53;4.53;;;;;;;16.42;80.53;100500.19;7399584;19;20007;-71
2023/08/27 02:30:27;;;;;;;5.38;4.88;;;;;;;16.40;80.40;100496.75;7399838;19;20024;-70
2023/08/27 02:32:55;;;;;;;4.97;4.47;;;;;;;16.38;80.49;100498.66;7398337;19;20018;-71
2023/08/27 02:35:24;;;;;;;4.72;3.78;;;;;;;16.37;80.92;100515.47;7401351;19;20018;-71
2023/08/27 02:37:52;;;;;;;7.65;4.22;;;;;;;16.34;80.75;100490.00;7411411;19;20010;-71
2023/08/27 02:40:21;;;;;;;5.65;3.90;;;;;;;16.31;80.79;100484.84;7410999;19;20003;-70
2023/08/27 02:42:49;;;;;;;5.90;4.00;;;;;;;16.29;81.16;100503.44;7410249;19;20513;-71
2023/08/27 02:45:19;;;;;;;4.90;3.90;;;;;;;16.29;81.43;100508.75;7397128;19;20346;-71
2023/08/27 02:47:50;;;;;;;5.20;3.72;;;;;;;16.27;81.22;100497.38;7399566;19;20025;-71
2023/08/27 02:50:19;;;;;;;3.90;3.45;;;;;;;16.28;81.42;100508.81;7399237;19;20019;-70
2023/08/27 02:52:47;;;;;;;5.35;3.65;;;;;;;16.26;81.26;100529.22;7400527;19;20006;-71
2023/08/27 02:55:16;;;;;;;4.85;4.38;;;;;;;16.24;81.35;100529.28;7398893;19;20015;-70
2023/08/27 02:57:44;;;;;;;7.63;4.35;;;;;;;16.24;81.46;100528.44;7397298;19;20010;-70
2023/08/27 03:00:15;;;;;;;4.97;4.18;;;;;;;16.24;81.57;100525.81;7399329;19;20015;-71
2023/08/27 03:02:44;;;;;;;7.30;3.90;;;;;;;16.25;81.52;100530.13;7398757;19;20027;-71
2023/08/27 03:05:15;;;;;;;4.78;3.97;;;;;;;16.25;81.57;100525.72;7397079;19;20455;-71
2023/08/27 03:07:44;;;;;;;10.23;4.13;;;;;;;16.26;81.60;100515.97;7397101;19;20039;-71
2023/08/27 03:10:12;;;;;;;7.28;3.90;;;;;;;16.26;81.68;100515.97;7399969;19;20014;-71
2023/08/27 03:12:41;;;;;;;6.45;4.35;;;;;;;16.26;81.53;100516.84;7397236;19;20014;-71
2023/08/27 03:15:10;;;;;;;6.90;4.43;;;;;;;16.26;81.63;100510.69;7397345;19;20011;-71
2023/08/27 03:17:39;;;;;;;4.70;4.05;;;;;;;16.27;81.44;100517.69;7402338;19;20014;-71
2023/08/27 03:20:08;;;;;;;9.35;6.72;;;;;;;16.22;81.57;100499.38;7403474;19;20010;-71
2023/08/27 03:22:39;;;;;;;7.40;6.57;;;;;;;16.26;81.59;100497.44;7402006;19;20044;-71
2023/08/27 03:25:09;;;;;;;6.22;4.78;;;;;;;16.26;81.16;100510.69;7400079;19;20014;-71
2023/08/27 03:27:37;;;;;;;7.03;5.47;;;;;;;16.25;81.38;100512.47;7399568;19;20007;-70
2023/08/27 03:30:06;;;;;;;8.07;4.53;;;;;;;16.25;81.04;100508.97;7405633;19;20454;-70
2023/08/27 03:32:35;;;;;;;7.20;4.18;;;;;;;16.25;80.83;100496.59;7403840;19;20027;-71
2023/08/27 03:35:03;;;;;;;5.53;3.85;;;;;;;16.23;80.85;100481.72;7404347;19;20418;-70
2023/08/27 03:37:32;;;;;;;4.10;3.60;;;;;;;16.23;81.00;100484.38;7406167;19;20023;-70
2023/08/27 03:40:03;;;;;;;4.25;3.80;;;;;;;16.21;81.12;100476.50;7407672;19;20133;-70
2023/08/27 03:42:32;;;;;;;3.85;3.30;;;;;;;16.19;81.25;100464.28;7405432;19;20010;-71
2023/08/27 03:45:01;;;;;;;3.85;3.45;;;;;;;16.16;81.47;100452.03;7402942;19;20491;-71
2023/08/27 03:47:29;;;;;;;5.57;3.78;;;;;;;16.13;81.58;100447.75;7405915;19;20031;-70
2023/08/27 03:49:58;;;;;;;5.15;3.40;;;;;;;16.10;81.85;100458.50;7404834;19;20024;-70
2023/08/27 03:52:27;;;;;;;6.68;3.58;;;;;;;16.06;81.80;100471.97;7404840;19;20011;-71
2023/08/27 03:54:55;;;;;;;3.63;3.33;;;;;;;16.01;81.66;100464.28;7402133;19;20417;-71
2023/08/27 03:57:26;;;;;;;4.20;3.22;;;;;;;15.95;81.81;100461.91;7404444;19;20023;-71
2023/08/27 03:59:55;;;;;;;3.75;3.25;;;;;;;15.92;81.97;100470.00;7404780;19;20007;-71
2023/08/27 04:02:23;;;;;;;6.47;3.53;;;;;;;15.87;81.64;100472.88;7404916;19;20035;-71
2023/08/27 04:04:52;;;;;;;5.72;3.40;;;;;;;15.86;81.94;100470.28;7402569;19;20007;-71
2023/08/27 04:07:21;;;;;;;6.70;3.50;;;;;;;15.82;81.86;100474.84;7405316;19;20021;-70
2023/08/27 04:09:49;;;;;;;4.40;3.33;;;;;;;15.77;82.13;100477.72;7413093;19;20010;-70
2023/08/27 04:12:18;;;;;;;4.65;3.78;;;;;;;15.73;82.09;100481.44;7405286;19;20015;-71
2023/08/27 04:14:49;;;;;;;4.35;3.53;;;;;;;15.72;82.36;100478.84;7401928;19;20018;-70
2023/08/27 04:17:17;;;;;;;7.13;3.58;;;;;;;15.70;82.07;100476.28;7404858;19;20023;-70
2023/08/27 04:19:46;;;;;;;6.07;3.10;;;;;;;15.67;82.50;100472.91;7403880;19;20031;-70
2023/08/27 04:22:14;;;;;;;4.75;2.95;;;;;;;15.67;82.63;100471.16;7404902;19;20018;-70
2023/08/27 04:24:44;;;;;;;8.93;4.00;;;;;;;15.65;82.52;100462.41;7402493;19;20029;-71
2023/08/27 04:27:12;;;;;;;24.02;14.80;;;;;;;15.61;82.45;100472.28;7402500;19;20007;-70
2023/08/27 04:29:41;;;;;;;47.28;29.77;;;;;;;15.67;82.99;100484.38;7405172;19;20078;-70
2023/08/27 04:32:12;;;;;;;21.08;14.02;;;;;;;15.68;83.13;100478.13;7401821;19;20027;-70
2023/08/27 04:34:40;;;;;;;12.93;8.35;;;;;;;15.70;82.87;100484.22;7402455;19;20023;-70
2023/08/27 04:37:09;;;;;;;7.05;5.45;;;;;;;15.73;83.27;100501.72;7403028;19;20070;-70
2023/08/27 04:39:37;;;;;;;6.80;4.25;;;;;;;15.74;82.96;100506.09;7403401;19;20355;-70
2023/08/27 04:42:06;;;;;;;5.50;4.63;;;;;;;15.74;82.91;100492.88;7404199;19;20011;-70
2023/08/27 04:44:35;;;;;;;5.57;4.47;;;;;;;15.75;82.91;100490.16;7401973;19;20014;-70
2023/08/27 04:47:03;;;;;;;4.70;4.13;;;;;;;15.77;83.02;100487.41;7404337;19;20031;-70
2023/08/27 04:49:35;;;;;;;5.13;3.78;;;;;;;15.78;83.18;100492.66;7404497;19;20014;-70
2023/08/27 04:52:04;;;;;;;7.32;4.13;;;;;;;15.77;83.02;100480.34;7404685;19;20006;-70
2023/08/27 04:54:33;;;;;;;5.13;4.18;;;;;;;15.80;82.71;100487.28;7401871;19;20538;-70
2023/08/27 04:57:02;;;;;;;6.35;4.30;;;;;;;15.83;82.78;100475.72;7402256;19;20027;-70
2023/08/27 04:59:30;;;;;;;6.63;3.95;;;;;;;15.82;82.75;100463.44;7403334;19;20019;-70
2023/08/27 05:01:59;;;;;;;6.15;3.92;;;;;;;15.82;82.91;100452.84;7406962;19;20010;-70
2023/08/27 05:04:30;;;;;;;4.97;4.30;;;;;;;15.87;82.42;100461.41;7399295;19;20018;-69
2023/08/27 05:07:01;;;;;;;4.57;3.90;;;;;;;15.89;82.29;100452.47;7400973;19;20007;-70
2023/08/27 05:09:30;;;;;;;5.72;4.78;;;;;;;15.92;82.21;100459.41;7405780;19;20002;-69
2023/08/27 05:11:58;;;;;;;4.90;4.22;;;;;;;15.94;82.39;100466.34;7407826;19;20014;-70
2023/08/27 05:14:27;;;;;;;4.72;3.97;;;;;;;15.98;82.00;100472.34;7405452;19;20380;-71
2023/08/27 05:16:55;;;;;;;6.88;3.80;;;;;;;16.03;82.30;100477.41;7400243;19;20014;-70
2023/08/27 05:19:24;;;;;;;7.35;3.95;;;;;;;16.05;82.02;100476.41;7400342;19;20006;-70
2023/08/27 05:21:52;;;;;;;5.00;4.30;;;;;;;16.08;82.25;100483.34;7402215;19;20011;-70
2023/08/27 05:24:23;;;;;;;6.10;4.05;;;;;;;16.11;82.01;100475.25;7400976;19;20469;-70
2023/08/27 05:26:52;;;;;;;6.18;4.30;;;;;;;16.13;81.75;100468.94;7402557;19;20010;-70
2023/08/27 05:29:20;;;;;;;4.45;3.88;;;;;;;16.16;81.71;100473.22;7401229;19;20014;-71
2023/08/27 05:31:49;;;;;;;5.45;3.50;;;;;;;16.17;81.49;100471.44;7401627;19;20412;-71
2023/08/27 05:34:18;;;;;;;5.07;3.70;;;;;;;16.21;81.35;100459.75;7401165;19;20019;-71
2023/08/27 05:36:46;;;;;;;4.57;4.10;;;;;;;16.23;81.40;100461.41;7400243;19;20011;-70
2023/08/27 05:39:16;;;;;;;6.43;3.67;;;;;;;16.27;81.24;100465.59;7402611;19;20010;-71
2023/08/27 05:41:47;;;;;;;6.55;4.38;;;;;;;16.32;80.98;100472.47;7403585;19;20010;-72
2023/08/27 05:44:15;;;;;;;6.32;4.57;;;;;;;16.33;81.18;100467.09;7400540;19;20010;-71
2023/08/27 05:46:44;;;;;;;4.88;4.05;;;;;;;16.35;81.26;100465.25;7400874;19;20018;-69
2023/08/27 05:49:12;;;;;;;8.32;4.00;;;;;;;16.35;81.27;100459.06;7401738;19;20010;-71
2023/08/27 05:51:41;;;;;;;4.53;4.07;;;;;;;16.37;81.42;100473.09;7397719;19;20031;-71
2023/08/27 05:54:10;;;;;;;7.63;4.60;;;;;;;16.36;81.09;100474.88;7401058;19;20031;-70
2023/08/27 05:56:38;;;;;;;5.22;4.05;;;;;;;16.35;81.39;100474.97;7399954;19;20023;-70
2023/08/27 05:59:12;;;;;;;5.03;4.15;;;;;;;16.34;81.01;100476.75;7401462;19;20022;-70
2023/08/27 06:01:41;;;;;;;5.80;4.20;;;;;;;16.33;81.04;100469.75;7401418;19;20088;-70
2023/08/27 06:04:09;;;;;;;4.90;4.00;;;;;;;16.33;81.12;100475.03;7401199;19;20014;-70
2023/08/27 06:06:40;;;;;;;5.68;4.25;;;;;;;16.30;81.11;100475.19;7402104;19;20020;-70
2023/08/27 06:09:15;;;;;;;4.20;3.80;;;;;;;16.31;80.93;100471.59;7402487;19;20482;-70
2023/08/27 06:11:43;;;;;;;5.75;4.22;;;;;;;16.37;80.51;100467.81;7399532;19;20030;-70
2023/08/27 06:14:14;;;;;;;5.57;4.22;;;;;;;16.42;80.59;100468.44;7398815;19;20092;-70
2023/08/27 06:16:43;;;;;;;5.88;4.22;;;;;;;16.45;80.25;100468.25;7398887;19;20466;-71
2023/08/27 06:19:11;;;;;;;5.68;4.18;;;;;;;16.49;80.01;100464.53;7400432;19;20014;-71
2023/08/27 06:21:40;;;;;;;7.55;4.50;;;;;;;16.52;79.80;100460.88;7399845;19;20021;-71
2023/08/27 06:24:09;;;;;;;7.35;4.80;;;;;;;16.50;79.86;100460.09;7399344;19;20007;-72
2023/08/27 06:26:37;;;;;;;6.85;4.47;;;;;;;16.58;79.90;100469.34;7400862;19;20019;-70
2023/08/27 06:29:06;;;;;;;6.90;4.22;;;;;;;16.61;79.73;100474.47;7401991;19;20510;-71
2023/08/27 06:31:38;;;;;;;5.53;4.40;;;;;;;16.64;79.76;100473.47;7403545;19;20358;-71
2023/08/27 06:34:06;;;;;;;4.88;4.38;;;;;;;16.71;79.58;100460.78;7402354;19;20502;-72
2023/08/27 06:36:36;;;;;;;5.75;4.63;;;;;;;16.76;79.35;100461.41;7400593;19;20011;-71
2023/08/27 06:39:05;;;;;;;4.38;3.97;;;;;;;16.83;79.21;100459.28;7401911;19;20035;-71
2023/08/27 06:41:33;;;;;;;6.47;4.28;;;;;;;16.88;78.97;100455.47;7402857;19;20014;-71
2023/08/27 06:44:02;;;;;;;12.85;7.40;;;;;;;16.96;78.82;100457.75;7401448;19;20014;-70
2023/08/27 06:46:30;;;;;;;6.75;5.18;;;;;;;17.02;78.41;100459.19;7402681;19;20010;-71
2023/08/27 06:49:01;;;;;;;5.20;4.32;;;;;;;17.08;78.23;100462.34;7396911;19;20380;-70
2023/08/27 06:51:30;;;;;;;6.53;4.88;;;;;;;17.04;78.05;100459.97;7396106;19;20014;-71
2023/08/27 06:54:05;;;;;;;6.05;5.10;;;;;;;17.24;77.82;100485.41;7397922;19;20014;-71
2023/08/27 06:56:34;;;;;;;6.10;4.47;;;;;;;17.30;77.54;100482.44;7399312;19;20015;-71
2023/08/27 06:59:02;;;;;;;7.13;4.60;;;;;;;17.37;76.92;100480.28;7397306;19;20014;-71
2023/08/27 07:01:31;;;;;;;5.18;3.90;;;;;;;17.46;76.29;100489.56;7397947;19;20014;-71
2023/08/27 07:04:03;;;;;;;6.90;3.72;;;;;;;17.54;76.18;100505.88;7399947;19;20470;-71
2023/08/27 07:06:33;;;;;;;7.28;5.15;;;;;;;17.63;75.33;100516.00;7402425;19;20010;-71
2023/08/27 07:09:02;;;;;;;6.20;4.07;;;;;;;17.71;74.98;100505.81;7405250;19;20010;-71
2023/08/27 07:11:31;;;;;;;7.38;3.85;;;;;;;17.81;74.83;100492.06;7404833;19;20493;-71
2023/08/27 07:14:00;;;;;;;4.90;3.88;;;;;;;17.88;74.37;100488.09;7404422;19;20040;-71
2023/08/27 07:16:28;;;;;;;6.60;4.93;;;;;;;17.94;74.18;100487.78;7411510;19;20018;-71
2023/08/27 07:18:57;;;;;;;6.60;4.97;;;;;;;18.06;73.49;100504.81;7419795;19;20040;-71
2023/08/27 07:21:28;;;;;;;5.60;4.43;;;;;;;18.17;73.53;100498.88;7418983;19;20466;-70
2023/08/27 07:23:57;;;;;;;5.13;4.63;;;;;;;18.27;73.38;100481.47;7406498;19;20021;-71
2023/08/27 07:26:25;;;;;;;7.30;3.63;;;;;;;18.39;72.50;100483.41;7404750;19;20509;-69
2023/08/27 07:28:54;;;;;;;5.75;4.22;;;;;;;18.49;72.13;100478.41;7405555;19;20014;-71
2023/08/27 07:31:22;;;;;;;6.10;4.22;;;;;;;18.61;72.14;100479.47;7402897;19;20031;-70
2023/08/27 07:33:52;;;;;;;4.63;3.38;;;;;;;18.69;72.06;100477.22;7404307;19;20014;-70
2023/08/27 07:36:20;;;;;;;6.28;3.60;;;;;;;18.80;71.82;100492.50;7405064;19;20425;-70
2023/08/27 07:38:52;;;;;;;7.00;4.15;;;;;;;18.88;71.60;100489.41;7405819;19;20003;-70
2023/08/27 07:41:20;;;;;;;3.78;3.28;;;;;;;18.98;71.17;100482.63;7403455;19;20014;-71
2023/08/27 07:43:49;;;;;;;5.47;3.80;;;;;;;19.10;70.54;100473.03;7404387;19;20014;-71
2023/08/27 07:46:17;;;;;;;4.85;3.65;;;;;;;19.17;69.96;100457.53;7404098;19;20014;-70
2023/08/27 07:48:46;;;;;;;3.85;2.60;;;;;;;19.26;69.35;100462.28;7404329;19;20011;-71
2023/08/27 07:51:14;;;;;;;4.57;2.65;;;;;;;19.33;69.14;100454.78;7405856;19;20007;-71
2023/08/27 07:53:43;;;;;;;4.38;2.90;;;;;;;19.41;68.48;100455.16;7407037;19;20021;-71
2023/08/27 07:56:14;;;;;;;3.70;2.83;;;;;;;19.49;68.66;100450.19;7407931;19;20040;-69
2023/08/27 07:58:42;;;;;;;4.32;3.30;;;;;;;19.58;68.53;100450.56;7409009;19;20014;-72
2023/08/27 08:01:11;;;;;;;5.90;3.40;;;;;;;19.66;68.29;100440.25;7403861;19;20014;-72
2023/08/27 08:03:40;;;;;;;5.90;3.20;;;;;;;19.73;68.01;100424.75;7405544;19;20014;-72
2023/08/27 08:06:09;;;;;;;4.03;3.08;;;;;;;19.82;67.88;100425.03;7411558;19;20007;-71
2023/08/27 08:08:38;;;;;;;9.48;4.93;;;;;;;19.88;67.87;100409.59;7413664;19;20011;-72
2023/08/27 08:11:06;;;;;;;5.45;3.92;;;;;;;19.92;67.62;100403.16;7419298;19;20010;-72
2023/08/27 08:13:39;;;;;;;4.63;3.30;;;;;;;19.96;67.51;100399.31;7419164;19;20022;-71
2023/08/27 08:16:08;;;;;;;5.20;2.95;;;;;;;19.99;67.98;100391.97;7407949;19;20011;-72
2023/08/27 08:18:36;;;;;;;6.47;3.72;;;;;;;20.02;67.88;100398.91;7405330;19;20019;-71
2023/08/27 08:21:05;;;;;;;6.80;4.13;;;;;;;20.04;67.49;100423.59;7406833;19;20015;-71
2023/08/27 08:23:34;;;;;;;5.90;3.05;;;;;;;19.98;67.77;100411.56;7406808;19;20078;-72
2023/08/27 08:26:04;;;;;;;5.72;3.58;;;;;;;20.14;67.17;100423.84;7406690;19;20019;-71
2023/08/27 08:28:34;;;;;;;4.85;3.33;;;;;;;20.16;67.09;100419.28;7405767;19;20006;-71
2023/08/27 08:31:05;;;;;;;3.47;3.03;;;;;;;20.18;67.06;100422.69;7407730;19;20033;-72
2023/08/27 08:33:34;;;;;;;6.57;3.35;;;;;;;20.21;67.16;100418.97;7407052;19;20082;-71
2023/08/27 08:36:02;;;;;;;5.10;3.10;;;;;;;20.22;67.05;100413.56;7406132;19;20011;-72
2023/08/27 08:38:33;;;;;;;4.63;2.97;;;;;;;20.21;66.83;100410.97;7406218;19;20010;-71
2023/08/27 08:41:04;;;;;;;4.53;2.90;;;;;;;20.23;66.52;100415.22;7405438;19;20007;-71
2023/08/27 08:43:39;;;;;;;4.35;2.80;;;;;;;20.26;66.48;100420.38;7404291;19;20033;-72
2023/08/27 08:46:11;;;;;;;5.22;3.10;;;;;;;20.29;66.11;100420.16;7405917;19;20050;-70
2023/08/27 08:48:41;;;;;;;6.57;5.10;;;;;;;20.35;66.34;100419.72;7405701;19;20003;-70
2023/08/27 08:51:13;;;;;;;8.13;4.45;;;;;;;20.44;65.91;100423.59;7405226;19;20043;-72
2023/08/27 08:53:43;;;;;;;5.32;3.45;;;;;;;20.54;65.57;100417.63;7406055;19;20011;-70
2023/08/27 08:56:15;;;;;;;9.32;4.53;;;;;;;20.64;65.63;100424.03;7402532;19;20006;-69
2023/08/27 08:58:47;;;;;;;6.45;4.03;;;;;;;20.76;65.54;100419.69;7405991;19;20502;-70
2023/08/27 09:01:21;;;;;;;3.78;2.75;;;;;;;20.84;64.46;100412.03;7406491;19;20062;-71
2023/08/27 09:03:51;;;;;;;5.55;3.45;;;;;;;20.91;64.51;100409.75;7406907;19;20081;-70
2023/08/27 09:06:21;;;;;;;6.65;3.30;;;;;;;20.96;64.18;100408.47;7404975;19;20011;-71
2023/08/27 09:08:50;;;;;;;8.05;3.88;;;;;;;21.02;64.34;100412.53;7402547;19;20007;-72
2023/08/27 09:11:20;;;;;;;5.93;3.20;;;;;;;21.01;63.55;100399.31;7401263;19;20034;-71
2023/08/27 09:13:49;;;;;;;9.57;6.60;;;;;;;21.14;63.50;100410.78;7402762;19;20011;-72
2023/08/27 09:16:20;;;;;;;6.40;3.05;;;;;;;21.19;62.93;100413.13;7402866;19;20024;-70
2023/08/27 09:18:48;;;;;;;5.10;2.83;;;;;;;21.22;62.76;100412.91;7403212;19;20019;-70
2023/08/27 09:21:17;;;;;;;4.85;3.30;;;;;;;21.23;62.52;100415.47;7401747;19;20010;-71
2023/08/27 09:23:45;;;;;;;6.80;5.40;;;;;;;21.26;62.00;100409.91;7402854;19;20028;-69
2023/08/27 09:26:15;;;;;;;7.18;4.10;;;;;;;21.24;61.81;100400.31;7401458;19;20003;-71
2023/08/27 09:28:43;;;;;;;6.60;3.83;;;;;;;21.23;60.93;100399.47;7402143;19;20014;-70
2023/08/27 09:31:12;;;;;;;5.43;2.88;;;;;;;21.21;60.51;100404.06;7400769;19;20027;-71
2023/08/27 09:33:44;;;;;;;7.68;3.08;;;;;;;21.04;59.91;100378.59;7401507;19;20494;-71
2023/08/27 09:36:13;;;;;;;5.20;3.03;;;;;;;21.28;59.47;100412.47;7401986;19;20011;-69
2023/08/27 09:38:46;;;;;;;9.32;5.05;;;;;;;21.30;59.22;100424.72;7398793;19;20368;-70
2023/08/27 09:41:16;;;;;;;7.70;5.28;;;;;;;21.34;58.54;100427.19;7398334;19;20042;-70
2023/08/27 09:43:53;;;;;;;6.75;2.50;;;;;;;21.32;58.18;100403.28;7401174;19;20035;-71
2023/08/27 09:46:22;;;;;;;6.97;2.30;;;;;;;21.45;57.97;100412.09;7399913;19;20538;-70
2023/08/27 09:49:04;;;;;;;4.53;3.20;;;;;;;21.51;57.22;100400.13;7398707;19;20011;-70
2023/08/27 09:51:35;;;;;;;3.60;2.08;;;;;;;21.55;56.57;100401.63;7400556;19;20014;-71
2023/08/27 09:54:15;;;;;;;4.57;2.42;;;;;;;21.56;56.25;100389.13;7403013;19;20388;-72
2023/08/27 09:56:47;;;;;;;4.05;2.83;;;;;;;21.68;56.03;100390.91;7402230;19;20015;-70
2023/08/27 09:59:18;;;;;;;4.60;2.80;;;;;;;21.77;55.71;100402.72;7403449;19;20014;-70
2023/08/27 10:01:49;;;;;;;4.70;2.28;;;;;;;21.87;55.90;100394.88;7400982;19;20003;-70
2023/08/27 10:04:22;;;;;;;4.70;1.55;;;;;;;21.94;55.31;100401.47;7401674;19;20370;-71
2023/08/27 10:06:51;;;;;;;3.78;2.22;;;;;;;22.00;54.97;100390.28;7399860;19;20035;-71
2023/08/27 10:09:20;;;;;;;2.17;1.45;;;;;;;22.08;54.74;100400.41;7403371;19;20018;-71
2023/08/27 10:11:49;;;;;;;2.80;2.33;;;;;;;22.13;54.63;100392.91;7401065;19;20006;-71
2023/08/27 10:14:19;;;;;;;3.85;1.80;;;;;;;22.19;54.10;100394.25;7400349;19;20375;-70
2023/08/27 10:16:49;;;;;;;2.65;2.00;;;;;;;22.25;53.97;100385.75;7401842;19;20014;-69
2023/08/27 10:19:20;;;;;;;3.58;1.55;;;;;;;22.29;52.63;100388.09;7402900;19;20376;-71
2023/08/27 10:21:49;;;;;;;2.90;1.83;;;;;;;22.34;53.42;100405.59;7400447;19;20020;-69
2023/08/27 10:24:19;;;;;;;3.33;1.92;;;;;;;22.35;52.57;100401.94;7401827;19;20014;-69
2023/08/27 10:26:49;;;;;;;2.85;1.50;;;;;;;22.37;52.84;100405.38;7404127;19;20024;-70
2023/08/27 10:29:18;;;;;;;5.43;3.25;;;;;;;22.41;52.84;100404.19;7403628;19;20010;-70
2023/08/27 10:31:46;;;;;;;2.80;1.70;;;;;;;22.48;52.42;100396.53;7402583;19;20014;-70
2023/08/27 10:34:14;;;;;;;3.03;1.52;;;;;;;22.54;52.25;100390.72;7397969;19;20022;-70
2023/08/27 10:36:47;;;;;;;3.33;2.28;;;;;;;22.56;51.71;100380.75;7400019;19;20014;-70
2023/08/27 10:39:17;;;;;;;6.67;2.13;;;;;;;22.58;51.63;100371.66;7410306;19;20015;-70
2023/08/27 10:41:46;;;;;;;3.63;2.22;;;;;;;22.60;51.34;100369.69;7404722;19;21157;-70
2023/08/27 10:44:20;;;;;;;4.45;2.55;;;;;;;22.65;51.23;100357.81;7400755;19;20086;-68
2023/08/27 10:47:10;;;;;;;3.47;1.80;;;;;;;22.71;51.40;100354.63;7402951;19;20511;-68
2023/08/27 10:49:39;;;;;;;4.18;1.80;;;;;;;22.78;51.60;100351.34;7400453;19;20011;-68
2023/08/27 10:52:21;;;;;;;3.85;2.40;;;;;;;22.84;50.52;100346.50;7400554;19;20015;-68
2023/08/27 10:54:51;;;;;;;4.53;1.70;;;;;;;22.89;50.45;100350.47;7400150;19;20015;-67
2023/08/27 10:57:20;;;;;;;4.72;2.55;;;;;;;22.95;50.59;100354.50;7399457;19;20093;-68
2023/08/27 10:59:49;;;;;;;3.08;1.48;;;;;;;23.02;50.11;100349.50;7402342;19;20014;-68
2023/08/27 11:02:17;;;;;;;3.72;1.67;;;;;;;23.07;50.16;100355.34;7402389;19;20015;-68
2023/08/27 11:04:50;;;;;;;3.40;1.40;;;;;;;23.10;49.98;100360.41;7400109;19;20021;-70
2023/08/27 11:07:22;;;;;;;4.97;1.60;;;;;;;23.15;49.40;100352.94;7398660;19;20023;-68
2023/08/27 11:09:52;;;;;;;2.13;1.45;;;;;;;23.18;49.37;100355.34;7399616;19;20020;-67
2023/08/27 11:12:26;;;;;;;4.03;1.70;;;;;;;23.19;48.83;100358.84;7402688;19;20035;-68
2023/08/27 11:15:01;;;;;;;;;;;;;;;23.18;49.30;100344.66;7400102;19;20015;-70
2023/08/27 11:17:35;;;;;;;4.47;1.77;;;;;;;23.17;49.05;100328.72;7399407;19;20391;-70
2023/08/27 11:20:23;;;;;;;3.65;1.50;;;;;;;23.19;48.64;100332.97;7399552;19;20014;-70
2023/08/27 11:23:02;;;;;;;1.50;0.98;;;;;;;23.22;48.79;100326.53;7399933;19;20011;-69
2023/08/27 11:25:33;;;;;;;2.58;1.05;;;;;;;23.23;48.74;100331.72;7400561;19;20021;-68
2023/08/27 11:28:02;;;;;;;2.63;1.48;;;;;;;23.21;48.72;100341.72;7398546;19;20010;-69
2023/08/27 11:30:31;;;;;;;5.20;1.83;;;;;;;23.18;48.47;100350.00;7401691;19;20066;-69
2023/08/27 11:33:00;;;;;;;1.13;0.95;;;;;;;23.13;48.85;100340.59;7398470;19;20070;-69
2023/08/27 11:35:29;;;;;;;2.55;1.30;;;;;;;23.05;48.55;100335.88;7399060;19;20010;-70
2023/08/27 11:38:01;;;;;;;2.72;1.30;;;;;;;22.99;48.45;100328.34;7398730;19;20011;-69